createdAt,value
2018-06-30T00:02:03.955Z,60.20
2018-06-30T00:04:32.573Z,60.10
2018-06-30T00:07:01.003Z,60.20
2018-06-30T00:09:29.505Z,60.10
2018-06-30T00:11:58.012Z,60.20
2018-06-30T00:14:26.481Z,60.10
2018-06-30T00:16:54.936Z,60.10
2018-06-30T00:19:23.435Z,59.90
2018-06-30T00:21:51.902Z,60.00
2018-06-30T00:24:20.372Z,60.20
2018-06-30T00:26:50.870Z,60.30
2018-06-30T00:29:19.342Z,60.40
2018-06-30T00:31:47.793Z,60.40
2018-06-30T00:34:16.249Z,60.40
2018-06-30T00:36:44.789Z,60.30
2018-06-30T00:39:13.216Z,60.00
2018-06-30T00:41:41.644Z,59.80
2018-06-30T00:44:10.090Z,59.40
2018-06-30T00:46:38.561Z,59.70
2018-06-30T00:49:07.143Z,60.20
2018-06-30T00:51:35.540Z,60.10
2018-06-30T00:54:04.066Z,60.20
2018-06-30T00:56:32.518Z,60.40
2018-06-30T00:59:01.024Z,60.40
2018-06-30T01:01:29.608Z,60.10
2018-06-30T01:03:58.065Z,59.50
2018-06-30T01:06:26.476Z,60.10
2018-06-30T01:08:54.993Z,60.10
2018-06-30T01:11:23.441Z,60.00
2018-06-30T01:13:52.585Z,60.50
2018-06-30T01:16:21.081Z,60.70
2018-06-30T01:18:49.664Z,60.80
2018-06-30T01:21:18.089Z,60.80
2018-06-30T01:23:46.574Z,61.00
2018-06-30T01:26:15.054Z,60.70
2018-06-30T01:28:43.473Z,60.70
2018-06-30T01:31:11.934Z,60.70
2018-06-30T01:33:40.396Z,60.60
2018-06-30T01:36:08.904Z,60.40
2018-06-30T01:38:37.372Z,60.60
2018-06-30T01:41:06.031Z,60.70
2018-06-30T01:43:34.552Z,60.90
2018-06-30T01:46:02.980Z,60.80
2018-06-30T01:48:31.540Z,60.70
2018-06-30T01:51:00.019Z,60.30
2018-06-30T01:53:28.494Z,60.20
2018-06-30T01:55:56.995Z,60.00
2018-06-30T01:58:25.550Z,60.30
2018-06-30T02:00:54.061Z,60.60
2018-06-30T02:03:22.533Z,60.80
2018-06-30T02:08:19.159Z,60.60
2018-06-30T02:10:47.648Z,60.50
2018-06-30T02:13:16.080Z,60.60
2018-06-30T02:15:44.561Z,60.80
2018-06-30T02:20:41.214Z,60.40
2018-06-30T02:23:09.656Z,60.40
2018-06-30T02:25:38.268Z,60.50
2018-06-30T02:28:06.723Z,60.20
2018-06-30T02:30:35.289Z,60.30
2018-06-30T02:33:03.708Z,60.60
2018-06-30T02:35:32.152Z,60.40
2018-06-30T02:38:00.562Z,60.20
2018-06-30T02:42:57.313Z,60.00
2018-06-30T02:45:25.785Z,60.30
2018-06-30T02:47:54.245Z,60.60
2018-06-30T02:50:22.881Z,60.70
2018-06-30T02:52:51.313Z,60.60
2018-06-30T02:55:19.775Z,60.10
2018-06-30T02:57:48.276Z,60.10
2018-06-30T03:00:16.792Z,60.10
2018-06-30T03:05:14.186Z,60.40
2018-06-30T03:07:42.760Z,60.50
2018-06-30T03:10:11.226Z,60.30
2018-06-30T03:12:39.697Z,60.50
2018-06-30T03:15:08.128Z,60.50
2018-06-30T03:17:36.633Z,60.50
2018-06-30T03:20:05.370Z,60.50
2018-06-30T03:22:33.821Z,60.60
2018-06-30T03:25:02.249Z,60.70
2018-06-30T03:27:30.690Z,60.60
2018-06-30T03:29:59.221Z,60.40
2018-06-30T03:34:55.831Z,60.30
2018-06-30T03:37:24.276Z,60.40
2018-06-30T03:39:52.773Z,60.50
2018-06-30T03:42:21.183Z,60.60
2018-06-30T03:44:49.673Z,60.80
2018-06-30T03:47:18.284Z,60.90
2018-06-30T03:49:46.794Z,61.00
2018-06-30T03:52:15.295Z,61.00
2018-06-30T03:54:43.760Z,61.10
2018-06-30T03:57:12.177Z,61.00
2018-06-30T03:59:41.619Z,61.10
2018-06-30T04:02:10.147Z,61.10
2018-06-30T04:04:38.668Z,61.00
2018-06-30T04:07:07.205Z,61.20
2018-06-30T04:09:35.708Z,61.30
2018-06-30T04:12:04.384Z,61.30
2018-06-30T04:14:32.798Z,61.60
2018-06-30T04:17:01.241Z,61.70
2018-06-30T04:19:29.680Z,61.80
2018-06-30T04:21:58.200Z,61.90
2018-06-30T04:24:26.667Z,61.80
2018-06-30T04:26:55.121Z,61.60
2018-06-30T04:29:23.557Z,61.60
2018-06-30T04:31:52.027Z,61.70
2018-06-30T04:34:20.511Z,61.60
2018-06-30T04:36:49.001Z,61.70
2018-06-30T04:39:17.546Z,61.90
2018-06-30T04:41:46.072Z,62.00
2018-06-30T04:44:14.542Z,62.10
2018-06-30T04:46:43.118Z,61.80
2018-06-30T04:49:11.578Z,61.80
2018-06-30T04:51:40.044Z,62.00
2018-06-30T04:54:08.514Z,61.90
2018-06-30T04:56:36.973Z,62.20
2018-06-30T04:59:05.781Z,62.20
2018-06-30T05:01:34.291Z,62.20
2018-06-30T05:04:02.788Z,62.00
2018-06-30T05:06:31.868Z,61.90
2018-06-30T05:09:00.356Z,62.20
2018-06-30T05:11:28.844Z,62.50
2018-06-30T05:13:57.355Z,62.60
2018-06-30T05:16:25.833Z,62.80
2018-06-30T05:18:54.272Z,62.70
2018-06-30T05:21:22.796Z,62.60
2018-06-30T05:23:51.249Z,62.70
2018-06-30T05:26:19.702Z,62.50
2018-06-30T05:28:48.178Z,62.70
2018-06-30T05:31:16.693Z,62.90
2018-06-30T05:33:45.278Z,63.00
2018-06-30T05:36:13.791Z,62.80
2018-06-30T05:38:42.223Z,62.30
2018-06-30T05:41:10.767Z,62.40
2018-06-30T05:43:39.209Z,62.20
2018-06-30T05:46:07.797Z,61.70
2018-06-30T05:48:36.272Z,61.60
2018-06-30T05:51:05.293Z,61.70
2018-06-30T05:53:33.712Z,61.40
2018-06-30T05:56:02.194Z,61.60
2018-06-30T05:58:30.645Z,61.40
2018-06-30T06:00:59.312Z,61.60
2018-06-30T06:03:27.884Z,61.40
2018-06-30T06:05:56.355Z,61.20
2018-06-30T06:08:24.841Z,60.50
2018-06-30T06:10:53.290Z,58.90
2018-06-30T06:13:21.733Z,57.90
2018-06-30T06:15:50.347Z,58.10
2018-06-30T06:18:18.802Z,58.60
2018-06-30T06:20:47.293Z,56.70
2018-06-30T06:23:15.769Z,54.10
2018-06-30T06:25:44.231Z,54.50
2018-06-30T06:28:12.732Z,54.80
2018-06-30T06:30:41.933Z,53.70
2018-06-30T06:33:10.545Z,51.60
2018-06-30T06:35:38.983Z,53.40
2018-06-30T06:38:07.510Z,52.30
2018-06-30T06:40:35.997Z,54.40
2018-06-30T06:43:04.520Z,50.60
2018-06-30T06:45:33.013Z,50.80
2018-06-30T06:48:01.473Z,49.70
2018-06-30T06:50:30.017Z,49.40
2018-06-30T06:52:58.874Z,49.60
2018-06-30T06:55:27.603Z,49.70
2018-06-30T06:57:56.098Z,50.00
2018-06-30T07:00:25.378Z,49.60
2018-06-30T07:02:53.890Z,50.70
2018-06-30T07:05:22.446Z,50.20
2018-06-30T07:07:51.209Z,51.10
2018-06-30T07:10:19.701Z,50.80
2018-06-30T07:12:48.213Z,51.60
2018-06-30T07:15:16.752Z,48.90
2018-06-30T07:17:45.512Z,49.10
2018-06-30T07:20:14.193Z,51.70
2018-06-30T07:22:42.676Z,48.30
2018-06-30T07:25:11.790Z,48.10
2018-06-30T07:27:41.014Z,48.30
2018-06-30T07:30:09.563Z,49.90
2018-06-30T07:32:38.093Z,48.30
2018-06-30T07:35:06.704Z,48.40
2018-06-30T07:37:35.176Z,47.00
2018-06-30T07:40:03.763Z,48.20
2018-06-30T07:42:32.318Z,49.20
2018-06-30T07:45:00.902Z,47.90
2018-06-30T07:47:29.530Z,48.30
2018-06-30T07:49:58.295Z,47.70
2018-06-30T07:52:27.081Z,47.90
2018-06-30T07:54:56.604Z,46.80
2018-06-30T07:59:53.894Z,48.00
2018-06-30T08:02:22.430Z,47.70
2018-06-30T08:04:50.955Z,47.10
2018-06-30T08:07:19.516Z,48.20
2018-06-30T08:09:48.027Z,48.50
2018-06-30T08:12:16.587Z,48.60
2018-06-30T08:14:45.163Z,46.60
2018-06-30T08:17:13.642Z,47.40
2018-06-30T08:22:10.993Z,47.40
2018-06-30T08:24:39.601Z,47.80
2018-06-30T08:27:08.270Z,46.60
2018-06-30T08:29:36.961Z,46.90
2018-06-30T08:32:05.556Z,47.20
2018-06-30T08:37:02.442Z,47.20
2018-06-30T08:39:30.931Z,47.00
2018-06-30T08:41:59.401Z,46.80
2018-06-30T08:44:27.932Z,46.50
2018-06-30T08:46:56.487Z,46.60
2018-06-30T08:49:24.930Z,48.90
2018-06-30T08:51:53.762Z,47.20
2018-06-30T08:54:22.486Z,47.20
2018-06-30T08:56:51.111Z,47.90
2018-06-30T08:59:19.573Z,46.90
2018-06-30T09:01:48.180Z,47.30
2018-06-30T09:06:44.976Z,46.10
2018-06-30T09:09:13.494Z,45.50
2018-06-30T09:11:42.169Z,46.40
2018-06-30T09:14:11.141Z,47.60
2018-06-30T09:16:39.961Z,44.60
2018-06-30T09:19:08.533Z,45.00
2018-06-30T09:21:37.113Z,47.30
2018-06-30T09:24:05.890Z,45.80
2018-06-30T09:26:34.335Z,46.80
2018-06-30T09:29:02.844Z,46.10
2018-06-30T09:31:31.404Z,47.70
2018-06-30T09:34:00.009Z,47.80
2018-06-30T09:36:28.562Z,48.40
2018-06-30T09:38:57.215Z,46.30
2018-06-30T09:41:25.745Z,45.00
2018-06-30T09:43:54.244Z,44.50
2018-06-30T09:46:22.737Z,44.00
2018-06-30T09:48:51.228Z,45.90
2018-06-30T09:51:19.752Z,46.50
2018-06-30T09:56:16.373Z,46.50
2018-06-30T09:58:44.932Z,45.90
2018-06-30T10:01:13.416Z,45.90
2018-06-30T10:03:41.888Z,44.80
2018-06-30T10:06:10.443Z,45.40
2018-06-30T10:13:35.205Z,46.60
2018-06-30T10:16:03.751Z,46.00
2018-06-30T10:21:00.502Z,45.80
2018-06-30T10:23:28.994Z,45.80
2018-06-30T10:28:25.653Z,44.60
2018-06-30T10:33:22.265Z,45.50
2018-06-30T10:35:50.696Z,47.30
2018-06-30T10:38:19.276Z,46.40
2018-06-30T10:43:16.009Z,47.50
2018-06-30T10:45:44.681Z,46.90
2018-06-30T10:48:13.355Z,44.80
2018-06-30T10:50:41.832Z,46.50
2018-06-30T10:53:10.312Z,45.80
2018-06-30T10:55:38.744Z,45.00
2018-06-30T11:00:35.556Z,44.50
2018-06-30T11:03:04.120Z,43.30
2018-06-30T11:05:32.688Z,44.20
2018-06-30T11:08:01.108Z,44.90
2018-06-30T11:10:29.655Z,44.40
2018-06-30T11:12:58.191Z,44.90
2018-06-30T11:15:26.684Z,43.90
2018-06-30T11:17:55.197Z,43.80
2018-06-30T11:20:23.736Z,44.40
2018-06-30T11:22:52.197Z,45.80
2018-06-30T11:25:20.741Z,46.60
2018-06-30T11:27:49.193Z,46.30
2018-06-30T11:30:17.763Z,45.70
2018-06-30T11:32:46.224Z,45.10
2018-06-30T11:35:14.695Z,44.90
2018-06-30T11:37:43.194Z,44.10
2018-06-30T11:40:12.308Z,44.90
2018-06-30T11:42:40.953Z,44.80
2018-06-30T11:45:09.538Z,45.60
2018-06-30T11:47:38.050Z,44.20
2018-06-30T11:50:06.678Z,44.60
2018-06-30T11:52:35.201Z,45.50
2018-06-30T11:55:04.357Z,44.70
2018-06-30T11:57:32.932Z,44.90
2018-06-30T12:02:29.845Z,45.00
2018-06-30T12:04:58.358Z,45.30
2018-06-30T12:07:26.848Z,46.20
2018-06-30T12:09:56.346Z,44.20
2018-06-30T12:12:24.975Z,44.50
2018-06-30T12:14:53.576Z,44.10
2018-06-30T12:17:22.749Z,43.90
2018-06-30T12:19:51.303Z,43.70
2018-06-30T12:22:19.830Z,45.10
2018-06-30T12:24:48.260Z,44.70
2018-06-30T12:27:16.874Z,45.80
2018-06-30T12:29:45.352Z,44.30
2018-06-30T12:32:14.258Z,45.40
2018-06-30T12:34:42.728Z,45.20
2018-06-30T12:37:11.838Z,46.50
2018-06-30T12:42:08.600Z,43.50
2018-06-30T12:47:05.253Z,42.60
2018-06-30T12:49:33.735Z,43.90
2018-06-30T12:52:02.230Z,45.10
2018-06-30T12:54:30.833Z,44.30
2018-06-30T12:59:27.321Z,43.70
2018-06-30T13:01:56.347Z,43.60
2018-06-30T13:04:24.853Z,45.30
2018-06-30T13:06:54.010Z,44.30
2018-06-30T13:11:51.044Z,45.00
2018-06-30T13:14:19.508Z,45.00
2018-06-30T13:16:47.995Z,45.00
2018-06-30T13:19:16.762Z,45.10
2018-06-30T13:21:45.292Z,43.50
2018-06-30T13:24:15.337Z,43.00
2018-06-30T13:29:12.193Z,42.20
2018-06-30T13:31:40.706Z,43.10
2018-06-30T13:34:09.245Z,42.40
2018-06-30T13:36:37.881Z,41.50
2018-06-30T13:39:11.213Z,42.30
2018-06-30T13:41:39.690Z,41.80
2018-06-30T13:44:08.487Z,42.30
2018-06-30T13:46:37.001Z,42.60
2018-06-30T13:54:03.043Z,42.30
2018-06-30T13:56:31.572Z,43.30
2018-06-30T13:59:00.039Z,43.10
2018-06-30T14:01:28.717Z,43.90
2018-06-30T14:03:57.925Z,44.40
2018-06-30T14:06:26.434Z,42.50
2018-06-30T14:08:55.011Z,42.70
2018-06-30T14:11:23.602Z,42.90
2018-06-30T14:13:52.714Z,44.10
2018-06-30T14:16:21.341Z,44.20
2018-06-30T14:21:18.312Z,44.20
2018-06-30T14:26:15.028Z,44.10
2018-06-30T14:28:43.581Z,45.00
2018-06-30T14:31:12.077Z,43.60
2018-06-30T14:33:40.562Z,42.40
2018-06-30T14:36:09.184Z,42.50
2018-06-30T14:38:37.685Z,43.20
2018-06-30T14:41:06.297Z,43.30
2018-06-30T14:43:34.798Z,43.60
2018-06-30T14:46:03.316Z,43.60
2018-06-30T14:48:31.876Z,43.00
2018-06-30T14:51:00.544Z,43.20
2018-06-30T14:53:29.093Z,44.10
2018-06-30T14:55:57.684Z,44.40
2018-06-30T14:58:26.276Z,43.90
2018-06-30T15:00:54.793Z,43.30
2018-06-30T15:03:23.324Z,43.60
2018-06-30T15:05:51.864Z,43.10
2018-06-30T15:08:20.426Z,43.20
2018-06-30T15:10:48.980Z,43.20
2018-06-30T15:13:17.422Z,42.60
2018-06-30T15:15:45.937Z,43.10
2018-06-30T15:18:14.426Z,43.20
2018-06-30T15:20:42.928Z,43.50
2018-06-30T15:23:11.549Z,43.80
2018-06-30T15:25:40.030Z,43.50
2018-06-30T15:28:08.908Z,44.10
2018-06-30T15:30:38.093Z,43.90
2018-06-30T15:33:06.625Z,43.90
2018-06-30T15:35:35.113Z,43.50
2018-06-30T15:40:31.885Z,43.10
2018-06-30T15:43:00.345Z,42.80
2018-06-30T15:45:28.855Z,43.20
2018-06-30T15:47:57.417Z,43.00
2018-06-30T15:50:26.186Z,43.00
2018-06-30T15:52:54.680Z,43.00
2018-06-30T15:55:23.242Z,42.80
2018-06-30T15:57:51.889Z,42.70
2018-06-30T16:00:20.392Z,42.80
2018-06-30T16:02:49.059Z,42.60
2018-06-30T16:05:19.212Z,43.10
2018-06-30T16:07:47.739Z,42.90
2018-06-30T16:10:16.236Z,42.70
2018-06-30T16:12:44.816Z,42.40
2018-06-30T16:15:13.309Z,42.40
2018-06-30T16:17:41.817Z,42.40
2018-06-30T16:20:10.372Z,42.10
2018-06-30T16:22:38.870Z,42.30
2018-06-30T16:25:08.352Z,41.90
2018-06-30T16:27:36.803Z,42.00
2018-06-30T16:30:06.678Z,42.30
2018-06-30T16:32:35.283Z,42.30
2018-06-30T16:35:04.156Z,42.10
2018-06-30T16:37:32.693Z,42.00
2018-06-30T16:40:01.220Z,41.60
2018-06-30T16:42:29.723Z,42.10
2018-06-30T16:44:58.967Z,42.10
2018-06-30T16:47:27.466Z,41.80
2018-06-30T16:49:55.980Z,42.00
2018-06-30T16:52:24.447Z,42.10
2018-06-30T16:54:52.917Z,42.30
2018-06-30T16:57:21.557Z,41.90
2018-06-30T16:59:50.131Z,41.80
2018-06-30T17:02:18.677Z,41.60
2018-06-30T17:04:47.208Z,41.50
2018-06-30T17:07:15.757Z,41.40
2018-06-30T17:09:44.265Z,42.20
2018-06-30T17:12:12.815Z,41.90
2018-06-30T17:14:41.321Z,41.60
2018-06-30T17:17:09.921Z,41.80
2018-06-30T17:19:38.373Z,41.60
2018-06-30T17:22:07.022Z,42.00
2018-06-30T17:24:35.527Z,41.90
2018-06-30T17:27:04.078Z,41.40
2018-06-30T17:29:32.566Z,40.90
2018-06-30T17:32:01.089Z,41.00
2018-06-30T17:34:29.631Z,41.10
2018-06-30T17:36:58.193Z,41.00
2018-06-30T17:39:26.672Z,41.30
2018-06-30T17:41:55.270Z,41.80
2018-06-30T17:46:51.992Z,40.60
2018-06-30T17:49:20.565Z,40.90
2018-06-30T17:51:49.173Z,40.50
2018-06-30T17:54:17.715Z,40.80
2018-06-30T17:56:46.225Z,40.90
2018-06-30T17:59:14.739Z,40.60
2018-06-30T18:01:43.838Z,40.50
2018-06-30T18:04:12.383Z,40.00
2018-06-30T18:06:41.758Z,40.20
2018-06-30T18:09:11.532Z,40.10
2018-06-30T18:14:09.549Z,40.40
2018-06-30T18:16:39.063Z,40.20
2018-06-30T18:19:08.121Z,40.40
2018-06-30T18:21:36.805Z,39.80
2018-06-30T18:24:05.595Z,39.60
2018-06-30T18:26:34.146Z,39.90
2018-06-30T18:29:02.769Z,39.10
2018-06-30T18:33:59.706Z,39.50
2018-06-30T18:36:28.297Z,39.30
2018-06-30T18:38:56.874Z,39.30
2018-06-30T18:41:25.382Z,38.90
2018-06-30T18:43:53.944Z,39.30
2018-06-30T18:46:22.589Z,39.40
2018-06-30T18:48:51.101Z,39.10
2018-06-30T18:51:19.696Z,39.00
2018-06-30T18:53:48.193Z,39.10
2018-06-30T18:56:16.784Z,38.60
2018-06-30T18:58:45.331Z,39.00
2018-06-30T19:01:13.853Z,39.80
2018-06-30T19:03:42.478Z,40.10
2018-06-30T19:06:10.965Z,39.90
2018-06-30T19:08:39.517Z,39.40
2018-06-30T19:11:08.165Z,40.10
2018-06-30T19:13:36.724Z,39.50
2018-06-30T19:16:05.388Z,39.40
2018-06-30T19:18:34.272Z,38.50
2018-06-30T19:21:03.442Z,38.70
2018-06-30T19:23:31.945Z,37.10
2018-06-30T19:26:00.585Z,35.90
2018-06-30T19:28:29.204Z,36.40
2018-06-30T19:30:57.671Z,35.60
2018-06-30T19:33:26.237Z,34.60
2018-06-30T19:35:54.778Z,35.10
2018-06-30T19:38:23.280Z,35.30
2018-06-30T19:40:51.777Z,35.00
2018-06-30T19:43:20.296Z,34.70
2018-06-30T19:45:48.784Z,34.10
2018-06-30T19:48:17.291Z,33.60
2018-06-30T19:50:45.830Z,32.80
2018-06-30T19:53:14.426Z,32.80
2018-06-30T19:55:42.953Z,32.80
2018-06-30T19:58:11.505Z,32.90
2018-06-30T20:00:40.710Z,32.00
2018-06-30T20:03:09.188Z,30.90
2018-06-30T20:08:05.985Z,30.20
2018-06-30T20:10:34.521Z,30.20
2018-06-30T20:13:02.994Z,30.70
2018-06-30T20:15:31.433Z,30.70
2018-06-30T20:17:59.948Z,30.20
2018-06-30T20:22:56.808Z,29.40
2018-06-30T20:25:25.347Z,29.00
2018-06-30T20:27:54.081Z,28.70
2018-06-30T20:30:22.522Z,28.40
2018-06-30T20:32:51.139Z,28.60
2018-06-30T20:35:19.596Z,28.50
2018-06-30T20:37:48.081Z,28.50
2018-06-30T20:40:16.530Z,29.00
2018-06-30T20:42:45.144Z,28.60
2018-06-30T20:45:13.826Z,28.60
2018-06-30T20:47:42.285Z,28.40
2018-06-30T20:50:11.130Z,28.40
2018-06-30T20:52:39.596Z,28.30
2018-06-30T20:55:08.192Z,28.30
2018-06-30T20:57:36.613Z,28.40
2018-06-30T21:00:05.665Z,28.40
2018-06-30T21:02:34.144Z,28.60
2018-06-30T21:05:02.633Z,28.40
2018-06-30T21:07:31.091Z,28.70
2018-06-30T21:09:59.594Z,29.00
2018-06-30T21:12:28.050Z,29.20
2018-06-30T21:14:56.560Z,29.10
2018-06-30T21:17:25.136Z,29.00
2018-06-30T21:19:53.642Z,29.10
2018-06-30T21:22:22.197Z,29.20
2018-06-30T21:24:50.976Z,29.20
2018-06-30T21:27:19.994Z,28.80
2018-06-30T21:29:49.138Z,29.20
2018-06-30T21:32:17.613Z,28.90
2018-06-30T21:34:46.121Z,28.70
2018-06-30T21:37:14.685Z,28.80
2018-06-30T21:39:43.210Z,28.80
2018-06-30T21:42:11.901Z,29.00
2018-06-30T21:44:40.397Z,28.20
2018-06-30T21:47:08.903Z,28.00
2018-06-30T21:49:37.362Z,27.60
2018-06-30T21:52:05.853Z,27.60
2018-06-30T21:54:34.374Z,27.70
2018-06-30T21:57:02.913Z,27.90
2018-06-30T21:59:32.188Z,27.60
2018-06-30T22:04:28.884Z,28.20
2018-06-30T22:06:57.389Z,27.60
2018-06-30T22:09:25.984Z,27.10
2018-06-30T22:11:54.533Z,27.30
2018-06-30T22:14:23.025Z,27.50
2018-06-30T22:16:51.501Z,27.00
2018-06-30T22:19:19.994Z,26.90
2018-06-30T22:21:48.506Z,27.00
2018-06-30T22:24:17.223Z,27.10
2018-06-30T22:26:45.716Z,26.90
2018-06-30T22:29:15.201Z,26.90
2018-06-30T22:31:43.669Z,26.70
2018-06-30T22:34:12.116Z,27.00
2018-06-30T22:36:40.641Z,26.50
2018-06-30T22:39:11.097Z,27.00
2018-06-30T22:41:39.564Z,26.90
2018-06-30T22:44:08.261Z,26.90
2018-06-30T22:46:36.714Z,26.60
2018-06-30T22:49:05.213Z,26.90
2018-06-30T22:51:33.930Z,27.10
2018-06-30T22:54:02.349Z,27.00
2018-06-30T22:56:30.857Z,26.90
2018-06-30T22:58:59.392Z,26.60
2018-06-30T23:01:27.886Z,26.10
2018-06-30T23:03:56.408Z,26.20
2018-06-30T23:06:25.025Z,25.90
2018-06-30T23:08:53.484Z,25.90
2018-06-30T23:11:23.121Z,25.50
2018-06-30T23:13:51.993Z,26.10
2018-06-30T23:16:20.585Z,25.60
2018-06-30T23:18:49.120Z,25.40
2018-06-30T23:21:17.555Z,25.60
2018-06-30T23:23:46.013Z,25.40
2018-06-30T23:26:14.544Z,25.10
2018-06-30T23:28:43.104Z,25.70
2018-06-30T23:31:11.540Z,26.10
2018-06-30T23:33:39.985Z,25.20
2018-06-30T23:36:08.457Z,25.50
2018-06-30T23:38:37.013Z,26.30
2018-06-30T23:41:05.465Z,25.50
2018-06-30T23:43:34.626Z,25.20
2018-06-30T23:46:03.252Z,25.50
2018-06-30T23:48:31.957Z,25.70
2018-06-30T23:51:00.432Z,24.90
2018-06-30T23:53:28.898Z,25.10
2018-06-30T23:55:57.356Z,25.00
2018-06-30T23:58:25.939Z,25.40
